sensor_id;sensor_type;location;lat;lon;timestamp;P1;durP1;ratioP1;P2;durP2;ratioP2
3791;SDS011;1911;53.768;11.474;2023-11-21T00:01:17;7.97;;;4.70;;
3791;SDS011;1911;53.768;11.474;2023-11-21T00:03:43;12.63;;;7.00;;
3791;SDS011;1911;53.768;11.474;2023-11-21T00:06:09;9.87;;;5.93;;
3791;SDS011;1911;53.768;11.474;2023-11-21T00:08:35;9.20;;;5.43;;
3791;SDS011;1911;53.768;11.474;2023-11-21T00:11:01;13.23;;;5.77;;
3791;SDS011;1911;53.768;11.474;2023-11-21T00:13:27;10.53;;;5.90;;
3791;SDS011;1911;53.768;11.474;2023-11-21T00:15:53;8.10;;;5.57;;
3791;SDS011;1911;53.768;11.474;2023-11-21T00:18:20;9.53;;;5.87;;
3791;SDS011;1911;53.768;11.474;2023-11-21T00:20:46;9.80;;;5.83;;
3791;SDS011;1911;53.768;11.474;2023-11-21T00:23:11;11.03;;;6.40;;
3791;SDS011;1911;53.768;11.474;2023-11-21T00:25:37;8.93;;;5.50;;
3791;SDS011;1911;53.768;11.474;2023-11-21T00:28:03;10.67;;;6.43;;
3791;SDS011;1911;53.768;11.474;2023-11-21T00:30:29;11.30;;;6.37;;
3791;SDS011;1911;53.768;11.474;2023-11-21T00:32:56;9.53;;;5.60;;
3791;SDS011;1911;53.768;11.474;2023-11-21T00:35:21;10.37;;;6.33;;
3791;SDS011;1911;53.768;11.474;2023-11-21T00:37:47;8.03;;;5.60;;
3791;SDS011;1911;53.768;11.474;2023-11-21T00:40:14;9.23;;;5.53;;
3791;SDS011;1911;53.768;11.474;2023-11-21T00:42:40;7.70;;;5.40;;
3791;SDS011;1911;53.768;11.474;2023-11-21T00:45:07;14.83;;;7.40;;
3791;SDS011;1911;53.768;11.474;2023-11-21T00:47:33;8.43;;;5.53;;
3791;SDS011;1911;53.768;11.474;2023-11-21T00:49:59;12.23;;;6.90;;
3791;SDS011;1911;53.768;11.474;2023-11-21T00:52:24;10.30;;;6.17;;
3791;SDS011;1911;53.768;11.474;2023-11-21T00:54:50;9.33;;;5.83;;
3791;SDS011;1911;53.768;11.474;2023-11-21T00:57:16;9.00;;;5.70;;
3791;SDS011;1911;53.768;11.474;2023-11-21T00:59:41;9.27;;;6.37;;
3791;SDS011;1911;53.768;11.474;2023-11-21T01:02:07;12.47;;;7.63;;
3791;SDS011;1911;53.768;11.474;2023-11-21T01:04:35;7.37;;;5.97;;
3791;SDS011;1911;53.768;11.474;2023-11-21T01:07:01;8.33;;;6.10;;
3791;SDS011;1911;53.768;11.474;2023-11-21T01:09:26;12.80;;;5.77;;
3791;SDS011;1911;53.768;11.474;2023-11-21T01:11:53;11.90;;;6.73;;
3791;SDS011;1911;53.768;11.474;2023-11-21T01:14:18;12.00;;;6.80;;
3791;SDS011;1911;53.768;11.474;2023-11-21T01:16:44;9.70;;;6.10;;
3791;SDS011;1911;53.768;11.474;2023-11-21T01:19:10;9.20;;;6.40;;
3791;SDS011;1911;53.768;11.474;2023-11-21T01:21:36;10.40;;;6.20;;
3791;SDS011;1911;53.768;11.474;2023-11-21T01:24:02;11.33;;;6.13;;
3791;SDS011;1911;53.768;11.474;2023-11-21T01:26:28;9.37;;;7.17;;
3791;SDS011;1911;53.768;11.474;2023-11-21T01:28:54;12.03;;;6.13;;
3791;SDS011;1911;53.768;11.474;2023-11-21T01:31:19;13.50;;;7.17;;
3791;SDS011;1911;53.768;11.474;2023-11-21T01:33:45;11.60;;;6.53;;
3791;SDS011;1911;53.768;11.474;2023-11-21T01:36:11;12.90;;;6.30;;
3791;SDS011;1911;53.768;11.474;2023-11-21T01:38:37;8.80;;;6.10;;
3791;SDS011;1911;53.768;11.474;2023-11-21T01:41:03;10.57;;;6.03;;
3791;SDS011;1911;53.768;11.474;2023-11-21T01:43:29;9.20;;;5.40;;
3791;SDS011;1911;53.768;11.474;2023-11-21T01:45:56;10.60;;;5.90;;
3791;SDS011;1911;53.768;11.474;2023-11-21T01:48:23;10.03;;;6.83;;
3791;SDS011;1911;53.768;11.474;2023-11-21T01:50:50;9.50;;;6.23;;
3791;SDS011;1911;53.768;11.474;2023-11-21T01:53:17;9.17;;;5.87;;
3791;SDS011;1911;53.768;11.474;2023-11-21T01:55:43;10.77;;;6.60;;
3791;SDS011;1911;53.768;11.474;2023-11-21T01:58:11;10.60;;;6.20;;
3791;SDS011;1911;53.768;11.474;2023-11-21T02:00:41;8.20;;;6.30;;
3791;SDS011;1911;53.768;11.474;2023-11-21T02:03:08;10.03;;;6.00;;
3791;SDS011;1911;53.768;11.474;2023-11-21T02:05:37;12.20;;;6.70;;
3791;SDS011;1911;53.768;11.474;2023-11-21T02:08:03;11.13;;;6.47;;
3791;SDS011;1911;53.768;11.474;2023-11-21T02:10:30;13.00;;;7.13;;
3791;SDS011;1911;53.768;11.474;2023-11-21T02:12:56;10.57;;;7.17;;
3791;SDS011;1911;53.768;11.474;2023-11-21T02:15:23;10.37;;;7.00;;
3791;SDS011;1911;53.768;11.474;2023-11-21T02:17:52;9.90;;;6.30;;
3791;SDS011;1911;53.768;11.474;2023-11-21T02:20:18;7.67;;;5.43;;
3791;SDS011;1911;53.768;11.474;2023-11-21T02:22:50;11.00;;;7.50;;
3791;SDS011;1911;53.768;11.474;2023-11-21T02:25:34;11.27;;;6.23;;
3791;SDS011;1911;53.768;11.474;2023-11-21T02:28:02;12.03;;;6.80;;
3791;SDS011;1911;53.768;11.474;2023-11-21T02:30:28;10.27;;;6.97;;
3791;SDS011;1911;53.768;11.474;2023-11-21T02:32:56;11.27;;;7.73;;
3791;SDS011;1911;53.768;11.474;2023-11-21T02:35:22;10.87;;;7.17;;
3791;SDS011;1911;53.768;11.474;2023-11-21T02:37:48;10.63;;;7.13;;
3791;SDS011;1911;53.768;11.474;2023-11-21T02:40:15;11.27;;;7.97;;
3791;SDS011;1911;53.768;11.474;2023-11-21T02:42:44;13.13;;;7.30;;
3791;SDS011;1911;53.768;11.474;2023-11-21T02:45:10;12.97;;;8.23;;
3791;SDS011;1911;53.768;11.474;2023-11-21T02:47:41;13.63;;;8.33;;
3791;SDS011;1911;53.768;11.474;2023-11-21T02:50:10;11.50;;;8.47;;
3791;SDS011;1911;53.768;11.474;2023-11-21T02:52:35;13.27;;;8.53;;
3791;SDS011;1911;53.768;11.474;2023-11-21T02:55:02;15.03;;;9.10;;
3791;SDS011;1911;53.768;11.474;2023-11-21T02:57:28;12.87;;;7.63;;
3791;SDS011;1911;53.768;11.474;2023-11-21T02:59:54;17.23;;;8.50;;
3791;SDS011;1911;53.768;11.474;2023-11-21T03:02:20;13.03;;;8.43;;
3791;SDS011;1911;53.768;11.474;2023-11-21T03:04:45;13.43;;;8.10;;
3791;SDS011;1911;53.768;11.474;2023-11-21T03:07:13;12.73;;;8.23;;
3791;SDS011;1911;53.768;11.474;2023-11-21T03:09:38;15.00;;;8.27;;
3791;SDS011;1911;53.768;11.474;2023-11-21T03:12:04;16.37;;;8.33;;
3791;SDS011;1911;53.768;11.474;2023-11-21T03:14:30;10.67;;;7.13;;
3791;SDS011;1911;53.768;11.474;2023-11-21T03:16:56;13.33;;;7.60;;
3791;SDS011;1911;53.768;11.474;2023-11-21T03:19:22;12.73;;;8.10;;
3791;SDS011;1911;53.768;11.474;2023-11-21T03:21:48;12.40;;;7.87;;
3791;SDS011;1911;53.768;11.474;2023-11-21T03:24:14;11.20;;;7.43;;
3791;SDS011;1911;53.768;11.474;2023-11-21T03:26:44;14.57;;;9.00;;
3791;SDS011;1911;53.768;11.474;2023-11-21T03:29:10;11.27;;;7.83;;
3791;SDS011;1911;53.768;11.474;2023-11-21T03:31:35;11.50;;;7.07;;
3791;SDS011;1911;53.768;11.474;2023-11-21T03:34:01;12.27;;;7.97;;
3791;SDS011;1911;53.768;11.474;2023-11-21T03:36:27;11.47;;;7.37;;
3791;SDS011;1911;53.768;11.474;2023-11-21T03:38:52;10.17;;;7.57;;
3791;SDS011;1911;53.768;11.474;2023-11-21T03:41:18;14.30;;;8.40;;
3791;SDS011;1911;53.768;11.474;2023-11-21T03:43:44;14.67;;;7.93;;
3791;SDS011;1911;53.768;11.474;2023-11-21T03:46:10;13.90;;;8.10;;
3791;SDS011;1911;53.768;11.474;2023-11-21T03:48:35;15.37;;;9.47;;
3791;SDS011;1911;53.768;11.474;2023-11-21T03:51:01;14.37;;;7.67;;
3791;SDS011;1911;53.768;11.474;2023-11-21T03:53:26;12.07;;;8.30;;
3791;SDS011;1911;53.768;11.474;2023-11-21T03:55:52;13.70;;;8.33;;
3791;SDS011;1911;53.768;11.474;2023-11-21T03:58:18;15.40;;;8.27;;
3791;SDS011;1911;53.768;11.474;2023-11-21T04:00:43;11.70;;;7.87;;
3791;SDS011;1911;53.768;11.474;2023-11-21T04:03:09;15.67;;;8.67;;
3791;SDS011;1911;53.768;11.474;2023-11-21T04:05:35;13.17;;;7.60;;
3791;SDS011;1911;53.768;11.474;2023-11-21T04:08:00;11.53;;;7.90;;
3791;SDS011;1911;53.768;11.474;2023-11-21T04:10:26;13.43;;;9.30;;
3791;SDS011;1911;53.768;11.474;2023-11-21T04:12:52;12.47;;;8.07;;
3791;SDS011;1911;53.768;11.474;2023-11-21T04:15:17;12.87;;;8.43;;
3791;SDS011;1911;53.768;11.474;2023-11-21T04:17:43;13.80;;;8.10;;
3791;SDS011;1911;53.768;11.474;2023-11-21T04:20:10;13.40;;;8.70;;
3791;SDS011;1911;53.768;11.474;2023-11-21T04:22:36;10.83;;;7.60;;
3791;SDS011;1911;53.768;11.474;2023-11-21T04:25:11;13.13;;;8.23;;
3791;SDS011;1911;53.768;11.474;2023-11-21T04:27:39;14.07;;;8.80;;
3791;SDS011;1911;53.768;11.474;2023-11-21T04:30:05;15.60;;;9.40;;
3791;SDS011;1911;53.768;11.474;2023-11-21T04:32:32;13.70;;;8.53;;
3791;SDS011;1911;53.768;11.474;2023-11-21T04:34:58;13.03;;;9.17;;
3791;SDS011;1911;53.768;11.474;2023-11-21T04:37:23;12.57;;;8.00;;
3791;SDS011;1911;53.768;11.474;2023-11-21T04:39:49;13.27;;;8.20;;
3791;SDS011;1911;53.768;11.474;2023-11-21T04:42:15;13.53;;;8.17;;
3791;SDS011;1911;53.768;11.474;2023-11-21T04:44:41;15.00;;;7.57;;
3791;SDS011;1911;53.768;11.474;2023-11-21T04:47:06;10.30;;;7.30;;
3791;SDS011;1911;53.768;11.474;2023-11-21T04:49:32;13.87;;;7.63;;
3791;SDS011;1911;53.768;11.474;2023-11-21T04:51:58;11.03;;;7.40;;
3791;SDS011;1911;53.768;11.474;2023-11-21T04:54:24;12.37;;;8.00;;
3791;SDS011;1911;53.768;11.474;2023-11-21T04:56:50;13.53;;;7.47;;
3791;SDS011;1911;53.768;11.474;2023-11-21T04:59:15;13.53;;;8.33;;
3791;SDS011;1911;53.768;11.474;2023-11-21T05:01:41;10.80;;;7.00;;
3791;SDS011;1911;53.768;11.474;2023-11-21T05:04:07;14.93;;;8.70;;
3791;SDS011;1911;53.768;11.474;2023-11-21T05:06:33;11.23;;;7.37;;
3791;SDS011;1911;53.768;11.474;2023-11-21T05:08:59;14.80;;;7.80;;
3791;SDS011;1911;53.768;11.474;2023-11-21T05:11:25;13.33;;;6.40;;
3791;SDS011;1911;53.768;11.474;2023-11-21T05:13:52;11.20;;;7.00;;
3791;SDS011;1911;53.768;11.474;2023-11-21T05:16:19;9.77;;;6.87;;
3791;SDS011;1911;53.768;11.474;2023-11-21T05:18:45;12.70;;;8.60;;
3791;SDS011;1911;53.768;11.474;2023-11-21T05:21:10;11.00;;;6.70;;
3791;SDS011;1911;53.768;11.474;2023-11-21T05:23:36;10.57;;;7.00;;
3791;SDS011;1911;53.768;11.474;2023-11-21T05:26:02;9.43;;;6.33;;
3791;SDS011;1911;53.768;11.474;2023-11-21T05:28:28;12.57;;;7.90;;
3791;SDS011;1911;53.768;11.474;2023-11-21T05:30:54;8.67;;;6.83;;
3791;SDS011;1911;53.768;11.474;2023-11-21T05:33:20;12.40;;;7.53;;
3791;SDS011;1911;53.768;11.474;2023-11-21T05:35:46;7.97;;;6.30;;
3791;SDS011;1911;53.768;11.474;2023-11-21T05:38:13;8.73;;;6.40;;
3791;SDS011;1911;53.768;11.474;2023-11-21T05:40:39;10.00;;;7.20;;
3791;SDS011;1911;53.768;11.474;2023-11-21T05:43:05;9.50;;;6.53;;
3791;SDS011;1911;53.768;11.474;2023-11-21T05:45:31;11.40;;;6.30;;
3791;SDS011;1911;53.768;11.474;2023-11-21T05:47:58;12.63;;;7.10;;
3791;SDS011;1911;53.768;11.474;2023-11-21T05:50:24;10.00;;;6.80;;
3791;SDS011;1911;53.768;11.474;2023-11-21T05:52:49;8.73;;;5.90;;
3791;SDS011;1911;53.768;11.474;2023-11-21T05:55:15;11.57;;;7.17;;
3791;SDS011;1911;53.768;11.474;2023-11-21T05:57:41;10.43;;;6.13;;
3791;SDS011;1911;53.768;11.474;2023-11-21T06:00:12;10.13;;;6.40;;
3791;SDS011;1911;53.768;11.474;2023-11-21T06:02:54;8.40;;;5.70;;
3791;SDS011;1911;53.768;11.474;2023-11-21T06:05:21;8.50;;;5.03;;
3791;SDS011;1911;53.768;11.474;2023-11-21T06:07:51;9.33;;;6.10;;
3791;SDS011;1911;53.768;11.474;2023-11-21T06:10:19;12.23;;;5.77;;
3791;SDS011;1911;53.768;11.474;2023-11-21T06:12:45;7.90;;;5.60;;
3791;SDS011;1911;53.768;11.474;2023-11-21T06:15:11;9.00;;;5.47;;
3791;SDS011;1911;53.768;11.474;2023-11-21T06:17:40;7.20;;;5.30;;
3791;SDS011;1911;53.768;11.474;2023-11-21T06:20:07;10.00;;;5.40;;
3791;SDS011;1911;53.768;11.474;2023-11-21T06:22:38;7.27;;;5.43;;
3791;SDS011;1911;53.768;11.474;2023-11-21T06:25:05;9.43;;;5.23;;
3791;SDS011;1911;53.768;11.474;2023-11-21T06:27:37;9.20;;;5.33;;
3791;SDS011;1911;53.768;11.474;2023-11-21T06:30:04;6.47;;;4.90;;
3791;SDS011;1911;53.768;11.474;2023-11-21T06:32:31;9.87;;;5.57;;
3791;SDS011;1911;53.768;11.474;2023-11-21T06:34:57;8.70;;;5.80;;
3791;SDS011;1911;53.768;11.474;2023-11-21T06:37:26;8.70;;;4.93;;
3791;SDS011;1911;53.768;11.474;2023-11-21T06:39:53;9.47;;;5.57;;
3791;SDS011;1911;53.768;11.474;2023-11-21T06:42:19;9.30;;;5.70;;
3791;SDS011;1911;53.768;11.474;2023-11-21T06:44:45;8.57;;;5.63;;
3791;SDS011;1911;53.768;11.474;2023-11-21T06:47:12;8.33;;;4.90;;
3791;SDS011;1911;53.768;11.474;2023-11-21T06:49:37;6.40;;;4.37;;
3791;SDS011;1911;53.768;11.474;2023-11-21T06:52:03;8.43;;;4.90;;
3791;SDS011;1911;53.768;11.474;2023-11-21T06:54:30;7.23;;;5.17;;
3791;SDS011;1911;53.768;11.474;2023-11-21T06:56:57;8.43;;;4.70;;
3791;SDS011;1911;53.768;11.474;2023-11-21T06:59:23;6.10;;;5.50;;
3791;SDS011;1911;53.768;11.474;2023-11-21T07:01:49;7.97;;;6.10;;
3791;SDS011;1911;53.768;11.474;2023-11-21T07:04:15;7.50;;;5.10;;
3791;SDS011;1911;53.768;11.474;2023-11-21T07:06:41;8.50;;;5.87;;
3791;SDS011;1911;53.768;11.474;2023-11-21T07:09:08;9.73;;;6.00;;
3791;SDS011;1911;53.768;11.474;2023-11-21T07:11:37;9.70;;;5.10;;
3791;SDS011;1911;53.768;11.474;2023-11-21T07:14:03;8.60;;;5.30;;
3791;SDS011;1911;53.768;11.474;2023-11-21T07:16:35;6.07;;;5.03;;
3791;SDS011;1911;53.768;11.474;2023-11-21T07:19:04;10.10;;;6.10;;
3791;SDS011;1911;53.768;11.474;2023-11-21T07:21:31;7.20;;;5.37;;
3791;SDS011;1911;53.768;11.474;2023-11-21T07:23:58;9.93;;;5.80;;
3791;SDS011;1911;53.768;11.474;2023-11-21T07:26:24;11.17;;;6.43;;
3791;SDS011;1911;53.768;11.474;2023-11-21T07:28:51;8.27;;;5.10;;
3791;SDS011;1911;53.768;11.474;2023-11-21T07:31:16;9.30;;;5.40;;
3791;SDS011;1911;53.768;11.474;2023-11-21T07:33:42;8.87;;;5.50;;
3791;SDS011;1911;53.768;11.474;2023-11-21T07:36:08;8.50;;;5.30;;
3791;SDS011;1911;53.768;11.474;2023-11-21T07:38:35;9.73;;;5.17;;
3791;SDS011;1911;53.768;11.474;2023-11-21T07:41:01;8.40;;;6.60;;
3791;SDS011;1911;53.768;11.474;2023-11-21T07:43:26;7.30;;;5.40;;
3791;SDS011;1911;53.768;11.474;2023-11-21T07:45:54;9.80;;;5.23;;
3791;SDS011;1911;53.768;11.474;2023-11-21T07:48:20;6.80;;;5.30;;
3791;SDS011;1911;53.768;11.474;2023-11-21T07:50:45;7.83;;;5.50;;
3791;SDS011;1911;53.768;11.474;2023-11-21T07:53:12;9.97;;;5.10;;
3791;SDS011;1911;53.768;11.474;2023-11-21T07:55:39;7.40;;;5.63;;
3791;SDS011;1911;53.768;11.474;2023-11-21T07:58:05;7.40;;;4.93;;
3791;SDS011;1911;53.768;11.474;2023-11-21T08:00:30;11.33;;;5.53;;
3791;SDS011;1911;53.768;11.474;2023-11-21T08:02:56;7.37;;;4.87;;
3791;SDS011;1911;53.768;11.474;2023-11-21T08:05:22;9.07;;;5.40;;
3791;SDS011;1911;53.768;11.474;2023-11-21T08:07:47;6.47;;;4.37;;
3791;SDS011;1911;53.768;11.474;2023-11-21T08:10:13;7.03;;;4.90;;
3791;SDS011;1911;53.768;11.474;2023-11-21T08:12:39;7.20;;;4.40;;
3791;SDS011;1911;53.768;11.474;2023-11-21T08:15:04;9.97;;;5.90;;
3791;SDS011;1911;53.768;11.474;2023-11-21T08:17:30;8.53;;;5.20;;
3791;SDS011;1911;53.768;11.474;2023-11-21T08:19:57;7.40;;;5.23;;
3791;SDS011;1911;53.768;11.474;2023-11-21T08:22:23;8.40;;;5.50;;
3791;SDS011;1911;53.768;11.474;2023-11-21T08:24:50;9.90;;;5.23;;
3791;SDS011;1911;53.768;11.474;2023-11-21T08:27:15;6.20;;;4.37;;
3791;SDS011;1911;53.768;11.474;2023-11-21T08:29:41;10.10;;;5.50;;
3791;SDS011;1911;53.768;11.474;2023-11-21T08:32:07;11.33;;;4.70;;
3791;SDS011;1911;53.768;11.474;2023-11-21T08:34:33;5.43;;;4.37;;
3791;SDS011;1911;53.768;11.474;2023-11-21T08:36:59;5.53;;;4.10;;
3791;SDS011;1911;53.768;11.474;2023-11-21T08:39:25;9.83;;;4.60;;
3791;SDS011;1911;53.768;11.474;2023-11-21T08:41:51;9.00;;;4.57;;
3791;SDS011;1911;53.768;11.474;2023-11-21T08:44:17;7.97;;;4.70;;
3791;SDS011;1911;53.768;11.474;2023-11-21T08:46:43;6.43;;;5.00;;
3791;SDS011;1911;53.768;11.474;2023-11-21T08:49:11;6.20;;;4.40;;
3791;SDS011;1911;53.768;11.474;2023-11-21T08:51:37;6.17;;;4.73;;
3791;SDS011;1911;53.768;11.474;2023-11-21T08:54:03;5.40;;;4.57;;
3791;SDS011;1911;53.768;11.474;2023-11-21T08:56:33;6.50;;;3.67;;
3791;SDS011;1911;53.768;11.474;2023-11-21T08:58:59;6.07;;;4.50;;
3791;SDS011;1911;53.768;11.474;2023-11-21T09:01:31;7.93;;;4.90;;
3791;SDS011;1911;53.768;11.474;2023-11-21T09:03:57;6.30;;;4.60;;
3791;SDS011;1911;53.768;11.474;2023-11-21T09:06:23;6.40;;;3.93;;
3791;SDS011;1911;53.768;11.474;2023-11-21T09:08:49;6.77;;;4.30;;
3791;SDS011;1911;53.768;11.474;2023-11-21T09:11:15;7.87;;;4.17;;
3791;SDS011;1911;53.768;11.474;2023-11-21T09:13:41;7.27;;;4.50;;
3791;SDS011;1911;53.768;11.474;2023-11-21T09:16:07;6.80;;;5.27;;
3791;SDS011;1911;53.768;11.474;2023-11-21T09:18:33;8.30;;;4.80;;
3791;SDS011;1911;53.768;11.474;2023-11-21T09:20:59;5.77;;;4.37;;
3791;SDS011;1911;53.768;11.474;2023-11-21T09:23:24;5.80;;;4.17;;
3791;SDS011;1911;53.768;11.474;2023-11-21T09:25:50;7.67;;;4.23;;
3791;SDS011;1911;53.768;11.474;2023-11-21T09:28:17;7.17;;;5.53;;
3791;SDS011;1911;53.768;11.474;2023-11-21T09:30:43;9.43;;;5.63;;
3791;SDS011;1911;53.768;11.474;2023-11-21T09:33:09;8.03;;;5.10;;
3791;SDS011;1911;53.768;11.474;2023-11-21T09:35:37;7.00;;;4.80;;
3791;SDS011;1911;53.768;11.474;2023-11-21T09:38:03;6.43;;;4.50;;
3791;SDS011;1911;53.768;11.474;2023-11-21T09:40:35;5.90;;;4.20;;
3791;SDS011;1911;53.768;11.474;2023-11-21T09:43:02;6.87;;;4.13;;
3791;SDS011;1911;53.768;11.474;2023-11-21T09:45:36;6.63;;;4.83;;
3791;SDS011;1911;53.768;11.474;2023-11-21T09:48:04;6.67;;;4.33;;
3791;SDS011;1911;53.768;11.474;2023-11-21T09:50:31;11.40;;;5.10;;
3791;SDS011;1911;53.768;11.474;2023-11-21T09:55:35;6.40;;;4.80;;
3791;SDS011;1911;53.768;11.474;2023-11-21T09:58:05;5.73;;;4.80;;
3791;SDS011;1911;53.768;11.474;2023-11-21T10:00:36;6.20;;;4.40;;
3791;SDS011;1911;53.768;11.474;2023-11-21T10:03:05;9.60;;;5.50;;
3791;SDS011;1911;53.768;11.474;2023-11-21T10:05:30;7.07;;;4.77;;
3791;SDS011;1911;53.768;11.474;2023-11-21T10:07:59;8.00;;;5.70;;
3791;SDS011;1911;53.768;11.474;2023-11-21T10:10:25;16.43;;;7.87;;
3791;SDS011;1911;53.768;11.474;2023-11-21T10:12:54;8.30;;;6.00;;
3791;SDS011;1911;53.768;11.474;2023-11-21T10:15:22;6.80;;;5.40;;
3791;SDS011;1911;53.768;11.474;2023-11-21T10:17:50;11.40;;;5.33;;
3791;SDS011;1911;53.768;11.474;2023-11-21T10:20:19;13.27;;;4.90;;
3791;SDS011;1911;53.768;11.474;2023-11-21T10:22:45;5.00;;;4.20;;
3791;SDS011;1911;53.768;11.474;2023-11-21T10:25:11;5.80;;;4.67;;
3791;SDS011;1911;53.768;11.474;2023-11-21T10:27:39;7.93;;;5.27;;
3791;SDS011;1911;53.768;11.474;2023-11-21T10:30:06;5.90;;;4.03;;
3791;SDS011;1911;53.768;11.474;2023-11-21T10:32:37;6.73;;;4.67;;
3791;SDS011;1911;53.768;11.474;2023-11-21T10:35:05;7.27;;;4.87;;
3791;SDS011;1911;53.768;11.474;2023-11-21T10:37:38;5.47;;;4.20;;
3791;SDS011;1911;53.768;11.474;2023-11-21T10:40:05;8.27;;;5.27;;
3791;SDS011;1911;53.768;11.474;2023-11-21T10:42:37;6.70;;;4.50;;
3791;SDS011;1911;53.768;11.474;2023-11-21T10:45:04;7.00;;;4.90;;
3791;SDS011;1911;53.768;11.474;2023-11-21T10:47:37;7.17;;;4.60;;
3791;SDS011;1911;53.768;11.474;2023-11-21T10:50:08;5.17;;;3.83;;
3791;SDS011;1911;53.768;11.474;2023-11-21T10:52:36;8.17;;;4.10;;
3791;SDS011;1911;53.768;11.474;2023-11-21T10:55:25;4.90;;;4.00;;
3791;SDS011;1911;53.768;11.474;2023-11-21T10:57:52;6.43;;;3.57;;
3791;SDS011;1911;53.768;11.474;2023-11-21T11:00:19;5.43;;;3.73;;
3791;SDS011;1911;53.768;11.474;2023-11-21T11:02:47;6.60;;;4.20;;
3791;SDS011;1911;53.768;11.474;2023-11-21T11:05:15;6.73;;;3.93;;
3791;SDS011;1911;53.768;11.474;2023-11-21T11:07:45;5.67;;;3.40;;
3791;SDS011;1911;53.768;11.474;2023-11-21T11:10:19;4.13;;;3.30;;
3791;SDS011;1911;53.768;11.474;2023-11-21T11:12:47;6.30;;;3.70;;
3791;SDS011;1911;53.768;11.474;2023-11-21T11:15:15;6.53;;;4.33;;
3791;SDS011;1911;53.768;11.474;2023-11-21T11:17:41;6.90;;;4.20;;
3791;SDS011;1911;53.768;11.474;2023-11-21T11:20:10;4.83;;;3.60;;
3791;SDS011;1911;53.768;11.474;2023-11-21T11:22:43;7.10;;;4.47;;
3791;SDS011;1911;53.768;11.474;2023-11-21T11:32:58;3.63;;;2.50;;
3791;SDS011;1911;53.768;11.474;2023-11-21T11:35:42;5.43;;;3.53;;
3791;SDS011;1911;53.768;11.474;2023-11-21T11:38:20;5.00;;;3.60;;
3791;SDS011;1911;53.768;11.474;2023-11-21T11:40:47;3.80;;;2.90;;
3791;SDS011;1911;53.768;11.474;2023-11-21T11:43:24;5.33;;;3.20;;
3791;SDS011;1911;53.768;11.474;2023-11-21T11:45:50;6.80;;;3.03;;
3791;SDS011;1911;53.768;11.474;2023-11-21T11:48:18;4.00;;;2.70;;
3791;SDS011;1911;53.768;11.474;2023-11-21T11:51:05;7.47;;;2.90;;
3791;SDS011;1911;53.768;11.474;2023-11-21T11:53:35;3.47;;;2.90;;
3791;SDS011;1911;53.768;11.474;2023-11-21T11:58:56;5.23;;;2.90;;
3791;SDS011;1911;53.768;11.474;2023-11-21T12:01:24;4.43;;;2.40;;
3791;SDS011;1911;53.768;11.474;2023-11-21T12:06:56;3.60;;;2.80;;
3791;SDS011;1911;53.768;11.474;2023-11-21T12:09:25;3.60;;;2.27;;
3791;SDS011;1911;53.768;11.474;2023-11-21T12:11:51;3.67;;;2.30;;
3791;SDS011;1911;53.768;11.474;2023-11-21T12:14:19;3.97;;;2.53;;
3791;SDS011;1911;53.768;11.474;2023-11-21T12:16:46;4.20;;;2.40;;
3791;SDS011;1911;53.768;11.474;2023-11-21T12:19:13;6.20;;;3.60;;
3791;SDS011;1911;53.768;11.474;2023-11-21T12:21:39;4.67;;;2.40;;
3791;SDS011;1911;53.768;11.474;2023-11-21T12:24:09;2.37;;;1.93;;
3791;SDS011;1911;53.768;11.474;2023-11-21T12:26:35;4.33;;;2.30;;
3791;SDS011;1911;53.768;11.474;2023-11-21T12:29:01;4.13;;;2.50;;
3791;SDS011;1911;53.768;11.474;2023-11-21T12:31:29;7.53;;;2.30;;
3791;SDS011;1911;53.768;11.474;2023-11-21T12:33:55;4.10;;;2.27;;
3791;SDS011;1911;53.768;11.474;2023-11-21T12:36:22;3.70;;;2.20;;
3791;SDS011;1911;53.768;11.474;2023-11-21T12:38:49;6.73;;;3.60;;
3791;SDS011;1911;53.768;11.474;2023-11-21T12:41:15;5.70;;;4.17;;
3791;SDS011;1911;53.768;11.474;2023-11-21T12:43:42;3.47;;;2.83;;
3791;SDS011;1911;53.768;11.474;2023-11-21T12:46:09;3.00;;;2.40;;
3791;SDS011;1911;53.768;11.474;2023-11-21T12:48:39;4.50;;;3.00;;
3791;SDS011;1911;53.768;11.474;2023-11-21T12:51:09;5.37;;;2.50;;
3791;SDS011;1911;53.768;11.474;2023-11-21T12:53:37;3.47;;;2.37;;
3791;SDS011;1911;53.768;11.474;2023-11-21T12:56:21;4.00;;;2.60;;
3791;SDS011;1911;53.768;11.474;2023-11-21T12:58:50;3.30;;;2.53;;
3791;SDS011;1911;53.768;11.474;2023-11-21T13:01:22;4.10;;;2.60;;
3791;SDS011;1911;53.768;11.474;2023-11-21T13:03:53;5.63;;;2.80;;
3791;SDS011;1911;53.768;11.474;2023-11-21T13:06:19;6.57;;;3.13;;
3791;SDS011;1911;53.768;11.474;2023-11-21T13:08:46;4.43;;;2.80;;
3791;SDS011;1911;53.768;11.474;2023-11-21T13:11:12;3.97;;;2.30;;
3791;SDS011;1911;53.768;11.474;2023-11-21T13:13:40;4.50;;;2.90;;
3791;SDS011;1911;53.768;11.474;2023-11-21T13:16:07;4.67;;;2.90;;
3791;SDS011;1911;53.768;11.474;2023-11-21T13:18:34;6.90;;;3.00;;
3791;SDS011;1911;53.768;11.474;2023-11-21T13:21:04;3.57;;;2.90;;
3791;SDS011;1911;53.768;11.474;2023-11-21T13:23:39;4.90;;;3.30;;
3791;SDS011;1911;53.768;11.474;2023-11-21T13:26:06;4.00;;;2.50;;
3791;SDS011;1911;53.768;11.474;2023-11-21T13:28:33;3.67;;;3.00;;
3791;SDS011;1911;53.768;11.474;2023-11-21T13:31:01;5.47;;;2.73;;
3791;SDS011;1911;53.768;11.474;2023-11-21T13:33:34;3.30;;;2.10;;
3791;SDS011;1911;53.768;11.474;2023-11-21T13:36:03;3.43;;;2.27;;
3791;SDS011;1911;53.768;11.474;2023-11-21T13:38:32;10.00;;;2.50;;
3791;SDS011;1911;53.768;11.474;2023-11-21T13:41:00;4.60;;;2.30;;
3791;SDS011;1911;53.768;11.474;2023-11-21T13:43:26;3.03;;;2.03;;
3791;SDS011;1911;53.768;11.474;2023-11-21T13:45:53;3.53;;;2.33;;
3791;SDS011;1911;53.768;11.474;2023-11-21T13:48:38;3.60;;;1.90;;
3791;SDS011;1911;53.768;11.474;2023-11-21T13:51:08;6.43;;;2.50;;
3791;SDS011;1911;53.768;11.474;2023-11-21T13:53:47;3.60;;;2.20;;
3791;SDS011;1911;53.768;11.474;2023-11-21T13:56:15;3.27;;;1.93;;
3791;SDS011;1911;53.768;11.474;2023-11-21T13:58:45;3.00;;;2.27;;
3791;SDS011;1911;53.768;11.474;2023-11-21T14:01:17;4.37;;;2.77;;
3791;SDS011;1911;53.768;11.474;2023-11-21T14:03:55;3.70;;;2.00;;
3791;SDS011;1911;53.768;11.474;2023-11-21T14:06:27;4.20;;;2.70;;
3791;SDS011;1911;53.768;11.474;2023-11-21T14:08:59;3.27;;;1.87;;
3791;SDS011;1911;53.768;11.474;2023-11-21T14:11:31;7.30;;;2.83;;
3791;SDS011;1911;53.768;11.474;2023-11-21T14:13:59;3.77;;;2.40;;
3791;SDS011;1911;53.768;11.474;2023-11-21T14:16:25;6.10;;;2.67;;
3791;SDS011;1911;53.768;11.474;2023-11-21T14:18:51;3.70;;;2.40;;
3791;SDS011;1911;53.768;11.474;2023-11-21T14:21:29;4.83;;;2.83;;
3791;SDS011;1911;53.768;11.474;2023-11-21T14:23:54;6.03;;;2.90;;
3791;SDS011;1911;53.768;11.474;2023-11-21T14:26:20;4.70;;;2.63;;
3791;SDS011;1911;53.768;11.474;2023-11-21T14:28:46;5.50;;;2.40;;
3791;SDS011;1911;53.768;11.474;2023-11-21T14:31:14;8.57;;;2.90;;
3791;SDS011;1911;53.768;11.474;2023-11-21T14:33:45;6.60;;;2.30;;
3791;SDS011;1911;53.768;11.474;2023-11-21T14:36:11;6.13;;;2.87;;
3791;SDS011;1911;53.768;11.474;2023-11-21T14:38:37;3.80;;;2.43;;
3791;SDS011;1911;53.768;11.474;2023-11-21T14:41:04;5.93;;;2.67;;
3791;SDS011;1911;53.768;11.474;2023-11-21T14:43:34;3.80;;;2.40;;
3791;SDS011;1911;53.768;11.474;2023-11-21T14:46:01;4.67;;;2.53;;
3791;SDS011;1911;53.768;11.474;2023-11-21T14:48:28;4.70;;;2.40;;
3791;SDS011;1911;53.768;11.474;2023-11-21T14:51:12;4.20;;;2.57;;
3791;SDS011;1911;53.768;11.474;2023-11-21T14:53:54;2.90;;;1.93;;
3791;SDS011;1911;53.768;11.474;2023-11-21T14:56:24;3.07;;;2.13;;
3791;SDS011;1911;53.768;11.474;2023-11-21T14:58:56;3.93;;;2.20;;
3791;SDS011;1911;53.768;11.474;2023-11-21T15:01:25;5.63;;;2.10;;
3791;SDS011;1911;53.768;11.474;2023-11-21T15:04:09;4.50;;;2.00;;
3791;SDS011;1911;53.768;11.474;2023-11-21T15:06:46;9.40;;;2.67;;
3791;SDS011;1911;53.768;11.474;2023-11-21T15:09:13;4.13;;;2.00;;
3791;SDS011;1911;53.768;11.474;2023-11-21T15:11:39;2.97;;;1.70;;
3791;SDS011;1911;53.768;11.474;2023-11-21T15:14:04;2.70;;;1.57;;
3791;SDS011;1911;53.768;11.474;2023-11-21T15:16:33;2.50;;;1.80;;